Aviation Discussion


.AVIATION /14Z FRIDAY THROUGH TUESDAY/...
VFR CONDITIONS ARE LIKELY THROUGH THE TAF PERIOD UNDER HIGH 
PRESSURE. THE ONLY EXCEPTION WOULD BE POSSIBLE STRATOCU AT MRB TODAY 
WHICH MAY FALL INTO THE MVFR CATEGORY IF THEY BECOME BKN. THINK THIS 
IS A SMALL PROB. ALSO A SMALL SUBSET OF GUIDANCE SHOWING POSSIBLE 
VSBY REDUCTIONS LATE TONIGHT AS SLIGHTLY HIGHER DEWPOINTS WORK 
IN...BUT AM NOT SOLD ON THESE SOLUTIONS YET WITH THE DRY ARCTIC 
AIRMASS IN PLACE. NORTHERLY WINDS AROUND 10 KT TODAY BECOME 
LIGHT/VRB BY EVENING...THEN SOUTHERLY SATURDAY AROUND 10 KT.

VFR CONDS SATURDAY NIGHT THROUGH MONDAY NIGHT. LIGHT SW FLOW 
SATURDAY NIGHT BECOMES WLY BEHIND A WEAK COLD FRONT. LIGHT W/NW FLOW 
THEN THROUGH MONDAY. LIGHT RAIN POSSIBLE TUESDAY AS LOW PASSES 
THE CAROLINA COAST.

 

Terminal Aviation Forecasts

TAFBWI (View previous versions )
KBWI 061724Z 0618/0724 33005KT P6SM SKC
     FM071400 23004KT P6SM FEW250
     FM072200 22006KT P6SM SCT100=

TAFCHO (View previous versions )
KCHO 061724Z 0618/0718 VRB03KT P6SM SKC
     FM071700 22007KT P6SM FEW250=

TAFDCA (View previous versions )
KDCA 061724Z 0618/0718 34005KT P6SM SKC
     FM071400 22004KT P6SM FEW250=

TAFIAD (View previous versions )
KIAD 061724Z 0618/0724 34005KT P6SM SKC
     FM071400 21004KT P6SM FEW250=

TAFMRB (View previous versions )
KMRB 061724Z 0618/0718 00000KT P6SM SKC
     FM071600 22007KT P6SM SCT200=

TAFMTN (View previous versions )
KMTN 061724Z 0618/0718 33006KT P6SM SKC
     FM062300 00000KT P6SM FEW200
     FM071600 23006KT P6SM SCT250=


Meteorological Impact Statement

ZDC MIS 01 VALID 061145-062000
...FOR ATC PLANNING PURPOSES ONLY...
OCNL LGT-MOD TURB BLW FL430...MOST LIKLEY FL200-300. OCNL MVFR CIGS 
015-025 NC & S VA TIL 14Z...VFR ELSWHR. N-NE WINDS G20-30KT COASTAL 
AREAS.

Surface Map


TRACON Thunderstorm Forecast


Vertical Wind Profiles